sensor_id;sensor_type;location;lat;lon;timestamp;temperature;humidity
52267;DHT22;38223;50.940;4.034;2022-07-29T00:00:52;19.80;95.80
52267;DHT22;38223;50.940;4.034;2022-07-29T00:03:24;19.80;95.70
52267;DHT22;38223;50.940;4.034;2022-07-29T00:05:56;19.80;95.70
52267;DHT22;38223;50.940;4.034;2022-07-29T00:08:27;19.80;96.10
52267;DHT22;38223;50.940;4.034;2022-07-29T00:11:03;20.00;95.80
52267;DHT22;38223;50.940;4.034;2022-07-29T00:13:35;20.00;95.40
52267;DHT22;38223;50.940;4.034;2022-07-29T00:16:07;20.00;95.50
52267;DHT22;38223;50.940;4.034;2022-07-29T00:18:38;20.10;95.30
52267;DHT22;38223;50.940;4.034;2022-07-29T00:21:08;20.20;95.10
52267;DHT22;38223;50.940;4.034;2022-07-29T00:23:38;20.30;95.20
52267;DHT22;38223;50.940;4.034;2022-07-29T00:26:08;20.20;95.30
52267;DHT22;38223;50.940;4.034;2022-07-29T00:28:41;20.20;95.30
52267;DHT22;38223;50.940;4.034;2022-07-29T00:31:11;20.10;95.40
52267;DHT22;38223;50.940;4.034;2022-07-29T00:33:42;20.10;95.40
52267;DHT22;38223;50.940;4.034;2022-07-29T00:36:13;20.20;95.40
52267;DHT22;38223;50.940;4.034;2022-07-29T00:38:43;20.20;95.60
52267;DHT22;38223;50.940;4.034;2022-07-29T00:41:14;20.20;95.60
52267;DHT22;38223;50.940;4.034;2022-07-29T00:43:50;20.40;95.80
52267;DHT22;38223;50.940;4.034;2022-07-29T00:46:19;20.40;95.20
52267;DHT22;38223;50.940;4.034;2022-07-29T00:48:49;20.40;95.30
52267;DHT22;38223;50.940;4.034;2022-07-29T00:51:19;20.40;95.40
52267;DHT22;38223;50.940;4.034;2022-07-29T00:53:53;20.40;95.10
52267;DHT22;38223;50.940;4.034;2022-07-29T00:56:25;20.50;95.40
52267;DHT22;38223;50.940;4.034;2022-07-29T00:58:59;20.40;95.30
52267;DHT22;38223;50.940;4.034;2022-07-29T01:01:33;20.20;95.70
52267;DHT22;38223;50.940;4.034;2022-07-29T01:04:07;20.20;95.90
52267;DHT22;38223;50.940;4.034;2022-07-29T01:06:41;20.00;96.20
52267;DHT22;38223;50.940;4.034;2022-07-29T01:09:10;19.90;96.40
52267;DHT22;38223;50.940;4.034;2022-07-29T01:11:43;19.90;96.50
52267;DHT22;38223;50.940;4.034;2022-07-29T01:14:16;19.70;96.80
52267;DHT22;38223;50.940;4.034;2022-07-29T01:17:00;19.70;96.80
52267;DHT22;38223;50.940;4.034;2022-07-29T01:22:40;19.50;97.30
52267;DHT22;38223;50.940;4.034;2022-07-29T01:25:32;19.40;97.50
52267;DHT22;38223;50.940;4.034;2022-07-29T01:30:36;19.60;97.70
52267;DHT22;38223;50.940;4.034;2022-07-29T01:33:11;19.70;97.30
52267;DHT22;38223;50.940;4.034;2022-07-29T01:35:44;19.80;97.10
52267;DHT22;38223;50.940;4.034;2022-07-29T01:38:20;19.80;97.30
52267;DHT22;38223;50.940;4.034;2022-07-29T01:40:54;19.80;97.20
52267;DHT22;38223;50.940;4.034;2022-07-29T01:43:31;19.70;97.20
52267;DHT22;38223;50.940;4.034;2022-07-29T01:46:04;19.70;97.40
52267;DHT22;38223;50.940;4.034;2022-07-29T01:48:47;19.60;97.60
52267;DHT22;38223;50.940;4.034;2022-07-29T01:51:35;19.50;97.90
52267;DHT22;38223;50.940;4.034;2022-07-29T01:54:14;19.30;98.10
52267;DHT22;38223;50.940;4.034;2022-07-29T01:56:48;19.30;98.40
52267;DHT22;38223;50.940;4.034;2022-07-29T01:59:20;19.10;98.70
52267;DHT22;38223;50.940;4.034;2022-07-29T02:01:55;19.00;98.90
52267;DHT22;38223;50.940;4.034;2022-07-29T02:04:28;19.00;99.50
52267;DHT22;38223;50.940;4.034;2022-07-29T02:07:07;18.90;99.30
52267;DHT22;38223;50.940;4.034;2022-07-29T02:09:41;18.80;99.40
52267;DHT22;38223;50.940;4.034;2022-07-29T02:12:16;19.00;99.00
52267;DHT22;38223;50.940;4.034;2022-07-29T02:14:52;19.10;99.00
52267;DHT22;38223;50.940;4.034;2022-07-29T02:17:33;19.00;99.20
52267;DHT22;38223;50.940;4.034;2022-07-29T02:20:07;18.90;99.40
52267;DHT22;38223;50.940;4.034;2022-07-29T02:22:40;18.70;99.80
52267;DHT22;38223;50.940;4.034;2022-07-29T02:25:15;18.60;99.90
52267;DHT22;38223;50.940;4.034;2022-07-29T02:27:50;18.60;99.90
52267;DHT22;38223;50.940;4.034;2022-07-29T02:30:24;18.50;99.90
52267;DHT22;38223;50.940;4.034;2022-07-29T02:32:58;18.40;99.90
52267;DHT22;38223;50.940;4.034;2022-07-29T02:35:30;18.40;99.90
52267;DHT22;38223;50.940;4.034;2022-07-29T02:38:05;18.40;99.90
52267;DHT22;38223;50.940;4.034;2022-07-29T02:40:55;18.40;99.90
52267;DHT22;38223;50.940;4.034;2022-07-29T02:43:29;18.30;99.90
52267;DHT22;38223;50.940;4.034;2022-07-29T02:46:04;18.50;99.90
52267;DHT22;38223;50.940;4.034;2022-07-29T02:48:43;18.50;99.90
52267;DHT22;38223;50.940;4.034;2022-07-29T02:51:12;18.50;99.90
52267;DHT22;38223;50.940;4.034;2022-07-29T02:53:56;18.50;99.90
52267;DHT22;38223;50.940;4.034;2022-07-29T02:56:29;18.60;99.90
52267;DHT22;38223;50.940;4.034;2022-07-29T02:59:05;18.50;99.90
52267;DHT22;38223;50.940;4.034;2022-07-29T03:01:36;18.40;99.90
52267;DHT22;38223;50.940;4.034;2022-07-29T03:04:11;18.40;99.90
52267;DHT22;38223;50.940;4.034;2022-07-29T03:06:44;18.50;99.90
52267;DHT22;38223;50.940;4.034;2022-07-29T03:09:19;18.40;99.90
52267;DHT22;38223;50.940;4.034;2022-07-29T03:11:53;18.20;99.90
52267;DHT22;38223;50.940;4.034;2022-07-29T03:14:28;18.20;99.90
52267;DHT22;38223;50.940;4.034;2022-07-29T03:16:58;18.10;99.90
52267;DHT22;38223;50.940;4.034;2022-07-29T03:19:32;18.10;99.90
52267;DHT22;38223;50.940;4.034;2022-07-29T03:22:05;18.20;99.90
52267;DHT22;38223;50.940;4.034;2022-07-29T03:24:41;18.30;99.90
52267;DHT22;38223;50.940;4.034;2022-07-29T03:27:13;18.40;99.90
52267;DHT22;38223;50.940;4.034;2022-07-29T03:29:41;18.40;99.90
52267;DHT22;38223;50.940;4.034;2022-07-29T03:32:13;18.40;99.90
52267;DHT22;38223;50.940;4.034;2022-07-29T03:34:44;18.40;99.90
52267;DHT22;38223;50.940;4.034;2022-07-29T03:37:22;18.30;99.90
52267;DHT22;38223;50.940;4.034;2022-07-29T03:39:55;18.30;99.90
52267;DHT22;38223;50.940;4.034;2022-07-29T03:42:30;18.30;99.90
52267;DHT22;38223;50.940;4.034;2022-07-29T03:50:55;18.20;99.90
52267;DHT22;38223;50.940;4.034;2022-07-29T03:53:30;18.10;99.90
52267;DHT22;38223;50.940;4.034;2022-07-29T03:56:04;18.30;99.90
52267;DHT22;38223;50.940;4.034;2022-07-29T03:58:36;18.40;99.90
52267;DHT22;38223;50.940;4.034;2022-07-29T04:01:10;18.30;99.90
52267;DHT22;38223;50.940;4.034;2022-07-29T04:03:42;18.30;99.90
52267;DHT22;38223;50.940;4.034;2022-07-29T04:06:15;18.10;99.90
52267;DHT22;38223;50.940;4.034;2022-07-29T04:08:51;18.30;99.90
52267;DHT22;38223;50.940;4.034;2022-07-29T04:11:22;18.40;99.90
52267;DHT22;38223;50.940;4.034;2022-07-29T04:13:54;18.50;99.90
52267;DHT22;38223;50.940;4.034;2022-07-29T04:16:26;18.50;99.90
52267;DHT22;38223;50.940;4.034;2022-07-29T04:19:01;18.50;99.90
52267;DHT22;38223;50.940;4.034;2022-07-29T04:21:30;18.30;99.90
52267;DHT22;38223;50.940;4.034;2022-07-29T04:24:06;18.20;99.90
52267;DHT22;38223;50.940;4.034;2022-07-29T04:26:38;18.00;99.90
52267;DHT22;38223;50.940;4.034;2022-07-29T04:29:13;18.00;99.90
52267;DHT22;38223;50.940;4.034;2022-07-29T04:31:42;18.00;99.90
52267;DHT22;38223;50.940;4.034;2022-07-29T04:34:14;18.10;99.90
52267;DHT22;38223;50.940;4.034;2022-07-29T04:36:45;18.10;99.90
52267;DHT22;38223;50.940;4.034;2022-07-29T04:39:28;18.10;99.90
52267;DHT22;38223;50.940;4.034;2022-07-29T04:42:00;18.00;99.90
52267;DHT22;38223;50.940;4.034;2022-07-29T04:44:36;17.90;99.90
52267;DHT22;38223;50.940;4.034;2022-07-29T04:47:07;17.80;99.90
52267;DHT22;38223;50.940;4.034;2022-07-29T04:49:46;17.80;99.90
52267;DHT22;38223;50.940;4.034;2022-07-29T04:52:16;17.80;99.90
52267;DHT22;38223;50.940;4.034;2022-07-29T04:54:47;17.80;99.90
52267;DHT22;38223;50.940;4.034;2022-07-29T04:57:19;18.10;99.90
52267;DHT22;38223;50.940;4.034;2022-07-29T04:59:48;18.10;99.90
52267;DHT22;38223;50.940;4.034;2022-07-29T05:02:18;17.80;99.90
52267;DHT22;38223;50.940;4.034;2022-07-29T05:04:51;17.90;99.90
52267;DHT22;38223;50.940;4.034;2022-07-29T05:07:26;17.80;99.90
52267;DHT22;38223;50.940;4.034;2022-07-29T05:09:57;17.90;99.90
52267;DHT22;38223;50.940;4.034;2022-07-29T05:12:31;18.00;99.90
52267;DHT22;38223;50.940;4.034;2022-07-29T05:14:59;17.90;99.90
52267;DHT22;38223;50.940;4.034;2022-07-29T05:17:32;17.60;99.90
52267;DHT22;38223;50.940;4.034;2022-07-29T05:20:07;17.90;99.90
52267;DHT22;38223;50.940;4.034;2022-07-29T05:22:39;18.10;99.90
52267;DHT22;38223;50.940;4.034;2022-07-29T05:25:13;18.00;99.90
52267;DHT22;38223;50.940;4.034;2022-07-29T05:27:44;18.10;99.90
52267;DHT22;38223;50.940;4.034;2022-07-29T05:30:17;18.00;99.90
52267;DHT22;38223;50.940;4.034;2022-07-29T05:32:49;17.90;99.90
52267;DHT22;38223;50.940;4.034;2022-07-29T05:35:19;17.80;99.90
52267;DHT22;38223;50.940;4.034;2022-07-29T05:37:48;17.80;99.90
52267;DHT22;38223;50.940;4.034;2022-07-29T05:40:22;17.90;99.90
52267;DHT22;38223;50.940;4.034;2022-07-29T05:42:57;17.80;99.90
52267;DHT22;38223;50.940;4.034;2022-07-29T05:45:26;17.80;99.90
52267;DHT22;38223;50.940;4.034;2022-07-29T05:47:59;17.90;99.90
52267;DHT22;38223;50.940;4.034;2022-07-29T05:50:29;18.00;99.90
52267;DHT22;38223;50.940;4.034;2022-07-29T05:53:04;18.10;99.90
52267;DHT22;38223;50.940;4.034;2022-07-29T05:55:36;18.00;99.90
52267;DHT22;38223;50.940;4.034;2022-07-29T05:58:06;17.80;99.90
52267;DHT22;38223;50.940;4.034;2022-07-29T06:00:44;18.10;99.90
52267;DHT22;38223;50.940;4.034;2022-07-29T06:03:13;18.20;99.90
52267;DHT22;38223;50.940;4.034;2022-07-29T06:05:45;18.30;99.90
52267;DHT22;38223;50.940;4.034;2022-07-29T06:08:17;18.00;99.90
52267;DHT22;38223;50.940;4.034;2022-07-29T06:10:52;17.90;99.90
52267;DHT22;38223;50.940;4.034;2022-07-29T06:13:20;17.70;99.90
52267;DHT22;38223;50.940;4.034;2022-07-29T06:15:50;17.80;99.90
52267;DHT22;38223;50.940;4.034;2022-07-29T06:18:38;17.90;99.90
52267;DHT22;38223;50.940;4.034;2022-07-29T06:23:59;18.00;99.90
52267;DHT22;38223;50.940;4.034;2022-07-29T06:26:30;17.90;99.90
52267;DHT22;38223;50.940;4.034;2022-07-29T06:29:01;17.90;99.90
52267;DHT22;38223;50.940;4.034;2022-07-29T06:31:33;18.10;99.90
52267;DHT22;38223;50.940;4.034;2022-07-29T06:34:08;18.30;99.90
52267;DHT22;38223;50.940;4.034;2022-07-29T06:36:39;18.40;99.90
52267;DHT22;38223;50.940;4.034;2022-07-29T06:39:10;18.60;99.90
52267;DHT22;38223;50.940;4.034;2022-07-29T06:41:41;18.50;99.90
52267;DHT22;38223;50.940;4.034;2022-07-29T06:44:12;18.70;99.90
52267;DHT22;38223;50.940;4.034;2022-07-29T06:46:42;18.80;99.90
52267;DHT22;38223;50.940;4.034;2022-07-29T06:49:17;18.80;99.90
52267;DHT22;38223;50.940;4.034;2022-07-29T06:51:45;19.00;99.90
52267;DHT22;38223;50.940;4.034;2022-07-29T06:54:18;19.10;99.90
52267;DHT22;38223;50.940;4.034;2022-07-29T06:56:48;19.10;99.90
52267;DHT22;38223;50.940;4.034;2022-07-29T06:59:19;19.00;99.90
52267;DHT22;38223;50.940;4.034;2022-07-29T07:01:52;19.00;99.90
52267;DHT22;38223;50.940;4.034;2022-07-29T07:04:30;19.10;99.90
52267;DHT22;38223;50.940;4.034;2022-07-29T07:07:02;19.10;99.90
52267;DHT22;38223;50.940;4.034;2022-07-29T07:09:33;19.10;99.90
52267;DHT22;38223;50.940;4.034;2022-07-29T07:12:08;19.20;99.90
52267;DHT22;38223;50.940;4.034;2022-07-29T07:14:47;19.20;99.90
52267;DHT22;38223;50.940;4.034;2022-07-29T07:17:18;19.20;99.90
52267;DHT22;38223;50.940;4.034;2022-07-29T07:19:55;19.40;99.90
52267;DHT22;38223;50.940;4.034;2022-07-29T07:22:29;19.60;99.90
52267;DHT22;38223;50.940;4.034;2022-07-29T07:24:58;19.60;99.90
52267;DHT22;38223;50.940;4.034;2022-07-29T07:27:33;19.70;99.90
52267;DHT22;38223;50.940;4.034;2022-07-29T07:30:10;19.60;99.90
52267;DHT22;38223;50.940;4.034;2022-07-29T07:32:45;19.60;99.90
52267;DHT22;38223;50.940;4.034;2022-07-29T07:35:17;19.50;99.90
52267;DHT22;38223;50.940;4.034;2022-07-29T07:37:46;19.60;99.90
52267;DHT22;38223;50.940;4.034;2022-07-29T07:40:21;19.60;99.90
52267;DHT22;38223;50.940;4.034;2022-07-29T07:42:49;19.80;99.90
52267;DHT22;38223;50.940;4.034;2022-07-29T07:45:22;19.90;99.90
52267;DHT22;38223;50.940;4.034;2022-07-29T07:47:54;19.90;99.90
52267;DHT22;38223;50.940;4.034;2022-07-29T07:50:26;20.00;99.90
52267;DHT22;38223;50.940;4.034;2022-07-29T07:52:58;20.20;99.90
52267;DHT22;38223;50.940;4.034;2022-07-29T07:55:38;20.50;99.90
52267;DHT22;38223;50.940;4.034;2022-07-29T07:58:04;20.90;99.90
52267;DHT22;38223;50.940;4.034;2022-07-29T08:00:34;21.10;99.90
52267;DHT22;38223;50.940;4.034;2022-07-29T08:03:10;21.10;99.90
52267;DHT22;38223;50.940;4.034;2022-07-29T08:05:58;21.00;99.90
52267;DHT22;38223;50.940;4.034;2022-07-29T08:08:32;21.10;99.90
52267;DHT22;38223;50.940;4.034;2022-07-29T08:11:01;20.90;99.90
52267;DHT22;38223;50.940;4.034;2022-07-29T08:13:31;20.80;99.90
52267;DHT22;38223;50.940;4.034;2022-07-29T08:16:01;20.80;99.90
52267;DHT22;38223;50.940;4.034;2022-07-29T08:18:37;21.00;99.90
52267;DHT22;38223;50.940;4.034;2022-07-29T08:21:06;21.10;99.90
52267;DHT22;38223;50.940;4.034;2022-07-29T08:23:40;21.00;99.90
52267;DHT22;38223;50.940;4.034;2022-07-29T08:26:12;21.20;99.90
52267;DHT22;38223;50.940;4.034;2022-07-29T08:28:46;21.40;99.90
52267;DHT22;38223;50.940;4.034;2022-07-29T08:31:20;21.50;99.90
52267;DHT22;38223;50.940;4.034;2022-07-29T08:33:49;21.80;99.90
52267;DHT22;38223;50.940;4.034;2022-07-29T08:36:23;21.70;99.90
52267;DHT22;38223;50.940;4.034;2022-07-29T08:38:52;21.20;99.90
52267;DHT22;38223;50.940;4.034;2022-07-29T08:41:26;21.20;99.90
52267;DHT22;38223;50.940;4.034;2022-07-29T08:43:58;21.30;99.90
52267;DHT22;38223;50.940;4.034;2022-07-29T08:46:31;21.60;99.90
52267;DHT22;38223;50.940;4.034;2022-07-29T08:49:03;21.50;99.90
52267;DHT22;38223;50.940;4.034;2022-07-29T08:51:38;21.60;99.90
52267;DHT22;38223;50.940;4.034;2022-07-29T08:54:11;21.70;99.70
52267;DHT22;38223;50.940;4.034;2022-07-29T08:56:49;21.70;99.90
52267;DHT22;38223;50.940;4.034;2022-07-29T08:59:38;21.60;99.90
52267;DHT22;38223;50.940;4.034;2022-07-29T09:02:28;21.60;99.90
52267;DHT22;38223;50.940;4.034;2022-07-29T09:05:05;21.90;99.90
52267;DHT22;38223;50.940;4.034;2022-07-29T09:07:37;21.80;99.90
52267;DHT22;38223;50.940;4.034;2022-07-29T09:10:22;21.70;99.90
52267;DHT22;38223;50.940;4.034;2022-07-29T09:12:59;21.80;99.40
52267;DHT22;38223;50.940;4.034;2022-07-29T09:15:31;22.00;99.30
52267;DHT22;38223;50.940;4.034;2022-07-29T09:18:07;21.90;99.10
52267;DHT22;38223;50.940;4.034;2022-07-29T09:20:40;22.10;98.60
52267;DHT22;38223;50.940;4.034;2022-07-29T09:23:25;22.10;98.20
52267;DHT22;38223;50.940;4.034;2022-07-29T09:25:56;22.00;98.20
52267;DHT22;38223;50.940;4.034;2022-07-29T09:28:27;22.20;98.30
52267;DHT22;38223;50.940;4.034;2022-07-29T09:37:04;22.40;97.40
52267;DHT22;38223;50.940;4.034;2022-07-29T09:39:40;22.40;97.60
52267;DHT22;38223;50.940;4.034;2022-07-29T09:42:14;22.50;97.80
52267;DHT22;38223;50.940;4.034;2022-07-29T09:44:51;22.70;97.30
52267;DHT22;38223;50.940;4.034;2022-07-29T09:47:20;22.80;97.10
52267;DHT22;38223;50.940;4.034;2022-07-29T09:49:57;23.00;96.90
52267;DHT22;38223;50.940;4.034;2022-07-29T09:52:32;23.10;96.50
52267;DHT22;38223;50.940;4.034;2022-07-29T09:55:09;23.20;96.00
52267;DHT22;38223;50.940;4.034;2022-07-29T09:57:42;23.00;96.10
52267;DHT22;38223;50.940;4.034;2022-07-29T10:03:10;22.90;95.50
52267;DHT22;38223;50.940;4.034;2022-07-29T10:05:43;22.80;95.60
52267;DHT22;38223;50.940;4.034;2022-07-29T10:08:24;22.90;95.40
52267;DHT22;38223;50.940;4.034;2022-07-29T10:10:50;22.90;95.10
52267;DHT22;38223;50.940;4.034;2022-07-29T10:13:22;23.00;95.30
52267;DHT22;38223;50.940;4.034;2022-07-29T10:15:56;23.00;95.20
52267;DHT22;38223;50.940;4.034;2022-07-29T10:18:34;23.00;94.70
52267;DHT22;38223;50.940;4.034;2022-07-29T10:21:02;23.00;94.40
52267;DHT22;38223;50.940;4.034;2022-07-29T10:23:38;23.20;94.00
52267;DHT22;38223;50.940;4.034;2022-07-29T10:26:12;23.10;93.90
52267;DHT22;38223;50.940;4.034;2022-07-29T10:28:45;22.80;94.50
52267;DHT22;38223;50.940;4.034;2022-07-29T10:37:14;23.00;94.80
52267;DHT22;38223;50.940;4.034;2022-07-29T10:42:28;23.30;93.90
52267;DHT22;38223;50.940;4.034;2022-07-29T10:45:03;23.20;93.50
52267;DHT22;38223;50.940;4.034;2022-07-29T10:47:40;23.40;92.90
52267;DHT22;38223;50.940;4.034;2022-07-29T10:50:11;23.40;93.20
52267;DHT22;38223;50.940;4.034;2022-07-29T10:52:54;23.60;92.50
52267;DHT22;38223;50.940;4.034;2022-07-29T10:55:34;23.80;91.30
52267;DHT22;38223;50.940;4.034;2022-07-29T10:58:11;24.00;90.80
52267;DHT22;38223;50.940;4.034;2022-07-29T11:00:41;23.70;91.20
52267;DHT22;38223;50.940;4.034;2022-07-29T11:05:57;23.50;91.30
52267;DHT22;38223;50.940;4.034;2022-07-29T11:08:31;23.60;91.40
52267;DHT22;38223;50.940;4.034;2022-07-29T11:14:00;23.90;90.70
52267;DHT22;38223;50.940;4.034;2022-07-29T11:19:31;24.00;89.00
52267;DHT22;38223;50.940;4.034;2022-07-29T11:22:04;24.10;88.90
52267;DHT22;38223;50.940;4.034;2022-07-29T11:24:38;24.10;89.00
52267;DHT22;38223;50.940;4.034;2022-07-29T11:27:17;24.40;87.90
52267;DHT22;38223;50.940;4.034;2022-07-29T11:29:54;24.50;86.60
52267;DHT22;38223;50.940;4.034;2022-07-29T11:32:35;24.30;86.60
52267;DHT22;38223;50.940;4.034;2022-07-29T11:35:22;24.10;88.10
52267;DHT22;38223;50.940;4.034;2022-07-29T11:41:26;24.00;86.50
52267;DHT22;38223;50.940;4.034;2022-07-29T11:44:02;24.00;86.90
52267;DHT22;38223;50.940;4.034;2022-07-29T11:46:47;24.00;87.20
52267;DHT22;38223;50.940;4.034;2022-07-29T11:49:22;24.20;87.20
52267;DHT22;38223;50.940;4.034;2022-07-29T11:51:57;24.30;86.50
52267;DHT22;38223;50.940;4.034;2022-07-29T11:54:31;24.50;85.70
52267;DHT22;38223;50.940;4.034;2022-07-29T11:57:06;24.60;85.10
52267;DHT22;38223;50.940;4.034;2022-07-29T11:59:43;24.70;85.30
52267;DHT22;38223;50.940;4.034;2022-07-29T12:02:16;24.90;83.00
52267;DHT22;38223;50.940;4.034;2022-07-29T12:04:56;25.20;81.40
52267;DHT22;38223;50.940;4.034;2022-07-29T12:07:35;25.30;80.90
52267;DHT22;38223;50.940;4.034;2022-07-29T12:10:07;25.10;81.90
52267;DHT22;38223;50.940;4.034;2022-07-29T12:12:41;25.00;82.20
52267;DHT22;38223;50.940;4.034;2022-07-29T12:15:16;24.90;81.70
52267;DHT22;38223;50.940;4.034;2022-07-29T12:17:49;25.10;81.30
52267;DHT22;38223;50.940;4.034;2022-07-29T12:20:29;25.40;80.50
52267;DHT22;38223;50.940;4.034;2022-07-29T12:22:57;25.50;80.20
52267;DHT22;38223;50.940;4.034;2022-07-29T12:25:32;25.70;79.60
52267;DHT22;38223;50.940;4.034;2022-07-29T12:28:03;25.60;79.60
52267;DHT22;38223;50.940;4.034;2022-07-29T12:30:41;25.40;80.60
52267;DHT22;38223;50.940;4.034;2022-07-29T12:33:22;25.40;80.30
52267;DHT22;38223;50.940;4.034;2022-07-29T12:35:56;25.30;80.10
52267;DHT22;38223;50.940;4.034;2022-07-29T12:38:29;25.20;79.90
52267;DHT22;38223;50.940;4.034;2022-07-29T12:41:03;25.10;80.00
52267;DHT22;38223;50.940;4.034;2022-07-29T12:43:36;25.30;80.10
52267;DHT22;38223;50.940;4.034;2022-07-29T12:46:14;25.50;78.30
52267;DHT22;38223;50.940;4.034;2022-07-29T12:48:45;25.70;76.90
52267;DHT22;38223;50.940;4.034;2022-07-29T12:51:17;25.50;76.80
52267;DHT22;38223;50.940;4.034;2022-07-29T12:54:19;25.20;77.50
52267;DHT22;38223;50.940;4.034;2022-07-29T12:56:21;25.40;77.60
52267;DHT22;38223;50.940;4.034;2022-07-29T12:58:52;25.70;76.30
52267;DHT22;38223;50.940;4.034;2022-07-29T13:01:22;26.20;73.70
52267;DHT22;38223;50.940;4.034;2022-07-29T13:03:53;26.60;72.80
52267;DHT22;38223;50.940;4.034;2022-07-29T13:09:14;26.50;72.80
52267;DHT22;38223;50.940;4.034;2022-07-29T13:11:52;26.20;74.30
52267;DHT22;38223;50.940;4.034;2022-07-29T13:14:40;26.10;74.70
52267;DHT22;38223;50.940;4.034;2022-07-29T13:17:18;25.70;75.60
52267;DHT22;38223;50.940;4.034;2022-07-29T13:20:05;25.40;76.00
52267;DHT22;38223;50.940;4.034;2022-07-29T13:22:25;25.40;75.90
52267;DHT22;38223;50.940;4.034;2022-07-29T13:25:03;25.30;77.20
52267;DHT22;38223;50.940;4.034;2022-07-29T13:27:37;25.40;75.80
52267;DHT22;38223;50.940;4.034;2022-07-29T13:30:08;25.50;75.60
52267;DHT22;38223;50.940;4.034;2022-07-29T13:32:38;25.80;74.60
52267;DHT22;38223;50.940;4.034;2022-07-29T13:35:12;25.80;74.50
52267;DHT22;38223;50.940;4.034;2022-07-29T13:37:44;25.80;73.30
52267;DHT22;38223;50.940;4.034;2022-07-29T13:40:17;26.00;72.50
52267;DHT22;38223;50.940;4.034;2022-07-29T13:42:48;26.20;72.30
52267;DHT22;38223;50.940;4.034;2022-07-29T13:45:23;26.50;72.10
52267;DHT22;38223;50.940;4.034;2022-07-29T13:47:57;26.50;72.40
52267;DHT22;38223;50.940;4.034;2022-07-29T13:50:28;26.50;72.80
52267;DHT22;38223;50.940;4.034;2022-07-29T13:52:57;26.50;74.40
52267;DHT22;38223;50.940;4.034;2022-07-29T13:55:31;26.40;73.50
52267;DHT22;38223;50.940;4.034;2022-07-29T13:58:05;26.10;74.80
52267;DHT22;38223;50.940;4.034;2022-07-29T14:00:33;26.00;75.40
52267;DHT22;38223;50.940;4.034;2022-07-29T14:03:06;26.00;75.20
52267;DHT22;38223;50.940;4.034;2022-07-29T14:05:34;25.90;75.00
52267;DHT22;38223;50.940;4.034;2022-07-29T14:08:06;25.70;75.70
52267;DHT22;38223;50.940;4.034;2022-07-29T14:10:43;25.40;76.70
52267;DHT22;38223;50.940;4.034;2022-07-29T14:13:13;25.50;76.70
52267;DHT22;38223;50.940;4.034;2022-07-29T14:15:46;25.60;75.20
52267;DHT22;38223;50.940;4.034;2022-07-29T14:18:17;25.60;75.20
52267;DHT22;38223;50.940;4.034;2022-07-29T14:20:50;25.60;75.60
52267;DHT22;38223;50.940;4.034;2022-07-29T14:23:22;25.50;75.00
52267;DHT22;38223;50.940;4.034;2022-07-29T14:25:53;25.30;75.20
52267;DHT22;38223;50.940;4.034;2022-07-29T14:28:28;25.40;75.70
52267;DHT22;38223;50.940;4.034;2022-07-29T14:31:00;25.60;74.70
52267;DHT22;38223;50.940;4.034;2022-07-29T14:33:28;25.50;74.60
52267;DHT22;38223;50.940;4.034;2022-07-29T14:36:01;25.50;75.10
52267;DHT22;38223;50.940;4.034;2022-07-29T14:38:35;25.80;74.30
52267;DHT22;38223;50.940;4.034;2022-07-29T14:41:07;25.90;73.60
52267;DHT22;38223;50.940;4.034;2022-07-29T14:43:42;25.80;74.00
52267;DHT22;38223;50.940;4.034;2022-07-29T14:46:14;25.80;73.80
52267;DHT22;38223;50.940;4.034;2022-07-29T14:48:45;25.70;73.50
52267;DHT22;38223;50.940;4.034;2022-07-29T14:51:14;25.90;74.20
52267;DHT22;38223;50.940;4.034;2022-07-29T14:53:41;26.10;73.60
52267;DHT22;38223;50.940;4.034;2022-07-29T14:56:11;26.50;72.20
52267;DHT22;38223;50.940;4.034;2022-07-29T14:58:43;27.10;70.80
52267;DHT22;38223;50.940;4.034;2022-07-29T15:01:14;27.80;68.40
52267;DHT22;38223;50.940;4.034;2022-07-29T15:03:47;28.10;67.80
52267;DHT22;38223;50.940;4.034;2022-07-29T15:06:14;28.30;67.00
52267;DHT22;38223;50.940;4.034;2022-07-29T15:08:47;28.20;65.70
52267;DHT22;38223;50.940;4.034;2022-07-29T15:11:21;28.30;65.60
52267;DHT22;38223;50.940;4.034;2022-07-29T15:13:49;28.40;64.50
52267;DHT22;38223;50.940;4.034;2022-07-29T15:16:20;28.80;63.90
52267;DHT22;38223;50.940;4.034;2022-07-29T15:18:49;29.20;62.40
52267;DHT22;38223;50.940;4.034;2022-07-29T15:21:22;29.60;61.10
52267;DHT22;38223;50.940;4.034;2022-07-29T15:23:54;30.30;59.60
52267;DHT22;38223;50.940;4.034;2022-07-29T15:26:25;30.70;59.50
52267;DHT22;38223;50.940;4.034;2022-07-29T15:28:59;30.80;59.50
52267;DHT22;38223;50.940;4.034;2022-07-29T15:31:30;30.80;59.40
52267;DHT22;38223;50.940;4.034;2022-07-29T15:34:06;31.10;58.30
52267;DHT22;38223;50.940;4.034;2022-07-29T15:36:34;31.00;57.80
52267;DHT22;38223;50.940;4.034;2022-07-29T15:39:07;30.80;58.00
52267;DHT22;38223;50.940;4.034;2022-07-29T15:41:35;31.00;57.80
52267;DHT22;38223;50.940;4.034;2022-07-29T15:44:12;30.50;58.40
52267;DHT22;38223;50.940;4.034;2022-07-29T15:46:41;29.30;60.70
52267;DHT22;38223;50.940;4.034;2022-07-29T15:49:31;28.40;62.90
52267;DHT22;38223;50.940;4.034;2022-07-29T15:52:03;27.40;65.90
52267;DHT22;38223;50.940;4.034;2022-07-29T15:54:36;27.10;67.10
52267;DHT22;38223;50.940;4.034;2022-07-29T15:57:11;26.80;68.90
52267;DHT22;38223;50.940;4.034;2022-07-29T15:59:47;26.50;68.60
52267;DHT22;38223;50.940;4.034;2022-07-29T16:02:18;26.30;69.90
52267;DHT22;38223;50.940;4.034;2022-07-29T16:04:51;26.40;70.10
52267;DHT22;38223;50.940;4.034;2022-07-29T16:07:23;26.20;69.70
52267;DHT22;38223;50.940;4.034;2022-07-29T16:09:58;26.30;69.90
52267;DHT22;38223;50.940;4.034;2022-07-29T16:12:34;26.20;70.20
52267;DHT22;38223;50.940;4.034;2022-07-29T16:15:04;26.10;70.20
52267;DHT22;38223;50.940;4.034;2022-07-29T16:17:34;26.10;70.10
52267;DHT22;38223;50.940;4.034;2022-07-29T16:20:06;25.90;71.40
52267;DHT22;38223;50.940;4.034;2022-07-29T16:22:39;25.70;72.00
52267;DHT22;38223;50.940;4.034;2022-07-29T16:25:14;25.80;72.40
52267;DHT22;38223;50.940;4.034;2022-07-29T16:27:46;25.70;72.80
52267;DHT22;38223;50.940;4.034;2022-07-29T16:30:15;25.80;72.60
52267;DHT22;38223;50.940;4.034;2022-07-29T16:32:49;25.70;73.50
52267;DHT22;38223;50.940;4.034;2022-07-29T16:35:18;25.80;73.10
52267;DHT22;38223;50.940;4.034;2022-07-29T16:37:50;25.70;73.80
52267;DHT22;38223;50.940;4.034;2022-07-29T16:40:26;25.90;73.00
52267;DHT22;38223;50.940;4.034;2022-07-29T16:42:54;25.80;73.10
52267;DHT22;38223;50.940;4.034;2022-07-29T16:45:31;25.80;74.40
52267;DHT22;38223;50.940;4.034;2022-07-29T16:48:00;25.90;74.50
52267;DHT22;38223;50.940;4.034;2022-07-29T16:50:33;25.80;75.30
52267;DHT22;38223;50.940;4.034;2022-07-29T16:53:08;25.80;75.60
52267;DHT22;38223;50.940;4.034;2022-07-29T16:55:37;25.70;76.10